Time;durP1;ratioP1;P1;durP2;ratioP2;P2;SDS_P1;SDS_P2;PMS_P1;PMS_P2;Temp;Humidity;BMP_temperature;BMP_pressure;BME280_temperature;BME280_humidity;BME280_pressure;Samples;Min_cycle;Max_cycle;Signal;HPM_P1;HPM_P2
2023/08/25 00:00:59;;;;;;;;;;;;;;;22.03;65.98;99953.34;4984806;28;6808;-69
2023/08/25 00:03:24;;;;;;;;;;;;;;;22.02;65.86;99954.22;4949208;28;6784;-69
2023/08/25 00:05:53;;;;;;;;;;;;;;;22.00;66.01;99945.53;4952395;28;8780;-70
2023/08/25 00:08:19;;;;;;;;;;;;;;;21.99;65.97;99949.00;4968396;28;6804;-69
2023/08/25 00:10:45;;;;;;;;;;;;;;;21.97;65.92;99945.56;4959923;28;7247;-70
2023/08/25 00:13:10;;;;;;;;;;;;;;;21.97;65.91;99940.34;4960433;28;6852;-71
2023/08/25 00:15:36;;;;;;;;;;;;;;;21.97;66.00;99940.34;4964080;28;6799;-70
2023/08/25 00:18:02;;;;;;;;;;;;;;;21.96;66.10;99933.38;4964475;28;6854;-70
2023/08/25 00:20:28;;;;;;;;;;;;;;;21.96;65.80;99932.50;4943257;28;7270;-70
2023/08/25 00:22:54;;;;;;;;;;;;;;;21.96;66.04;99930.78;4964027;28;7182;-71
2023/08/25 00:25:19;;;;;;;;;;;;;;;21.95;65.91;99926.44;4947181;28;6791;-69
2023/08/25 00:27:45;;;;;;;;;;;;;;;21.93;66.07;99930.81;4964430;28;6788;-70
2023/08/25 00:30:11;;;;;;;;;;;;;;;21.92;65.93;99926.44;4966589;28;6784;-71
2023/08/25 00:32:38;;;;;;;;;;;;;;;21.90;65.92;99923.88;4948905;28;6988;-69
2023/08/25 00:35:04;;;;;;;;;;;;;;;21.91;66.12;99935.16;4949356;28;6788;-71
2023/08/25 00:37:30;;;;;;;;;;;;;;;21.90;65.90;99933.41;4939674;28;6867;-71
2023/08/25 00:39:55;;;;;;;;;;;;;;;21.88;65.79;99930.84;4947333;28;6780;-70
2023/08/25 00:42:21;;;;;;;;;;;;;;;21.86;66.10;99921.28;4948011;28;6939;-70
2023/08/25 00:44:46;;;;;;;;;;;;;;;21.85;65.72;99915.19;4963347;28;6870;-72
2023/08/25 00:47:12;;;;;;;;;;;;;;;21.82;65.62;99916.94;4965369;28;6788;-70
2023/08/25 00:49:39;;;;;;;;;;;;;;;21.78;65.61;99914.38;4942371;28;6784;-70
2023/08/25 00:52:04;;;;;;;;;;;;;;;21.75;65.73;99906.56;4962791;28;6868;-71
2023/08/25 00:54:34;;;;;;;;;;;;;;;21.71;65.39;99907.44;4980874;28;6985;-70
2023/08/25 00:57:01;;;;;;;;;;;;;;;21.69;65.46;99908.34;4948350;28;6884;-70
2023/08/25 00:59:27;;;;;;;;;;;;;;;21.65;65.31;99915.28;4946786;28;6800;-71
2023/08/25 01:01:52;;;;;;;;;;;;;;;21.60;65.56;99909.22;4980704;28;6847;-70
2023/08/25 01:04:18;;;;;;;;;;;;;;;21.59;65.82;99920.53;4961858;28;6860;-71
2023/08/25 01:06:44;;;;;;;;;;;;;;;21.57;66.04;99917.06;4941622;28;6784;-70
2023/08/25 01:09:10;;;;;;;;;;;;;;;21.58;65.92;99916.19;4962812;28;6861;-69
2023/08/25 01:11:59;;;;;;;;;;;;;;;21.58;66.08;99922.25;4945796;28;6846;-70
2023/08/25 01:14:49;;;;;;;;;;;;;;;21.58;65.97;99931.84;4959443;28;6965;-70
2023/08/25 01:17:37;;;;;;;;;;;;;;;21.58;66.30;99921.41;4966677;28;6880;-70
2023/08/25 01:20:09;;;;;;;;;;;;;;;21.61;66.57;99929.19;4980266;28;6956;-69
2023/08/25 01:23:12;;;;;;;;;;;;;;;21.64;66.55;99916.16;4964600;28;6816;-69
2023/08/25 01:25:38;;;;;;;;;;;;;;;21.65;66.55;99918.75;4960737;28;6820;-69
2023/08/25 01:28:04;;;;;;;;;;;;;;;21.68;66.41;99907.47;4978010;28;6772;-71
2023/08/25 01:30:31;;;;;;;;;;;;;;;21.70;66.78;99905.72;4961345;28;6848;-70
2023/08/25 01:32:59;;;;;;;;;;;;;;;21.71;66.11;99907.44;4963320;28;6796;-69
2023/08/25 01:36:16;;;;;;;;;;;;;;;21.68;65.73;99904.88;4962918;28;6824;-70
2023/08/25 01:38:45;;;;;;;;;;;;;;;21.63;65.89;99903.97;4947967;28;7039;-70
2023/08/25 01:41:46;;;;;;;;;;;;;;;21.58;65.51;99908.38;4963900;28;7237;-71
2023/08/25 01:44:18;;;;;;;;;;;;;;;21.54;65.73;99901.44;4946746;28;6824;-69
2023/08/25 01:46:48;;;;;;;;;;;;;;;21.51;65.93;99897.13;4940504;28;8195;-69
2023/08/25 01:49:14;;;;;;;;;;;;;;;21.49;65.89;99897.09;4976780;28;6871;-71
2023/08/25 01:51:41;;;;;;;;;;;;;;;21.48;65.87;99887.56;4963002;28;6876;-70
2023/08/25 01:54:07;;;;;;;;;;;;;;;21.46;65.57;99886.72;4944102;28;6796;-71
2023/08/25 01:56:32;;;;;;;;;;;;;;;21.45;65.48;99890.19;4960587;28;7106;-70
2023/08/25 01:58:58;;;;;;;;;;;;;;;21.43;65.37;99878.88;4957248;28;7084;-70
2023/08/25 02:01:25;;;;;;;;;;;;;;;21.43;65.62;99870.22;4944555;28;7220;-69
2023/08/25 02:03:52;;;;;;;;;;;;;;;21.43;65.52;99872.81;4945387;28;6845;-70
2023/08/25 02:06:18;;;;;;;;;;;;;;;21.42;66.24;99866.72;4947721;28;6808;-70
2023/08/25 02:08:43;;;;;;;;;;;;;;;21.45;66.08;99864.13;4961907;28;6788;-70
2023/08/25 02:11:09;;;;;;;;;;;;;;;21.48;66.56;99851.06;4938624;28;7181;-70
2023/08/25 02:13:34;;;;;;;;;;;;;;;21.51;66.48;99840.59;4936028;28;8635;-71
2023/08/25 02:16:00;;;;;;;;;;;;;;;21.56;66.70;99840.56;4940023;28;7024;-71
2023/08/25 02:18:25;;;;;;;;;;;;;;;21.60;66.51;99834.50;4962532;28;6831;-71
2023/08/25 02:20:50;;;;;;;;;;;;;;;21.64;66.70;99827.50;4957366;28;6795;-72
2023/08/25 02:23:16;;;;;;;;;;;;;;;21.70;66.50;99837.06;4960801;28;7091;-68
2023/08/25 02:25:41;;;;;;;;;;;;;;;21.75;66.83;99825.72;4965561;28;6882;-69
2023/08/25 02:28:07;;;;;;;;;;;;;;;21.80;66.68;99832.63;4941314;28;6976;-68
2023/08/25 02:30:32;;;;;;;;;;;;;;;21.84;66.20;99836.97;4961796;28;6786;-70
2023/08/25 02:32:59;;;;;;;;;;;;;;;21.87;66.27;99834.31;4949681;28;7351;-75
2023/08/25 02:35:24;;;;;;;;;;;;;;;21.89;66.34;99823.00;4981589;28;6812;-75
2023/08/25 02:38:01;;;;;;;;;;;;;;;21.91;66.03;99817.75;4978058;28;7265;-75
2023/08/25 02:40:27;;;;;;;;;;;;;;;21.91;66.19;99813.41;4947264;28;6804;-74
2023/08/25 02:42:58;;;;;;;;;;;;;;;21.91;65.98;99810.81;4950693;28;6997;-72
2023/08/25 02:45:24;;;;;;;;;;;;;;;21.91;65.57;99807.31;4980498;28;7160;-73
2023/08/25 02:47:50;;;;;;;;;;;;;;;21.91;65.81;99817.75;4954189;28;6840;-74
2023/08/25 02:50:16;;;;;;;;;;;;;;;21.89;65.30;99807.34;4945156;28;7017;-74
2023/08/25 02:52:41;;;;;;;;;;;;;;;21.89;65.39;99811.69;4960699;28;6979;-73
2023/08/25 02:55:07;;;;;;;;;;;;;;;21.87;65.56;99809.09;4977255;28;6803;-72
2023/08/25 02:57:32;;;;;;;;;;;;;;;21.83;65.34;99794.34;4957415;28;6884;-72
2023/08/25 02:59:58;;;;;;;;;;;;;;;21.81;65.06;99782.19;4946854;28;6966;-75
2023/08/25 03:02:23;;;;;;;;;;;;;;;21.78;65.32;99786.56;4975656;28;6788;-74
2023/08/25 03:04:49;;;;;;;;;;;;;;;21.75;64.97;99789.22;4961728;28;7026;-75
2023/08/25 03:07:14;;;;;;;;;;;;;;;21.74;65.31;99791.81;4945573;28;6800;-75
2023/08/25 03:09:40;;;;;;;;;;;;;;;21.73;65.11;99790.97;4958178;28;7186;-72
2023/08/25 03:12:05;;;;;;;;;;;;;;;21.71;65.05;99786.63;4956383;28;6950;-75
2023/08/25 03:14:31;;;;;;;;;;;;;;;21.69;65.08;99778.81;4959996;28;7118;-73
2023/08/25 03:16:56;;;;;;;;;;;;;;;21.69;65.11;99781.44;4944254;28;6828;-75
2023/08/25 03:19:22;;;;;;;;;;;;;;;21.68;64.95;99778.81;4960213;28;6970;-73
2023/08/25 03:21:47;;;;;;;;;;;;;;;21.68;65.20;99777.09;4961000;28;6791;-75
2023/08/25 03:24:13;;;;;;;;;;;;;;;21.69;65.41;99768.38;4940887;28;7005;-74
2023/08/25 03:26:38;;;;;;;;;;;;;;;21.69;65.46;99771.00;4938676;28;6871;-74
2023/08/25 03:29:04;;;;;;;;;;;;;;;21.70;65.55;99764.06;4940674;28;7242;-74
2023/08/25 03:31:29;;;;;;;;;;;;;;;21.68;65.15;99764.06;4961643;28;6882;-75
2023/08/25 03:33:54;;;;;;;;;;;;;;;21.66;65.33;99768.38;4941100;28;7330;-75
2023/08/25 03:36:20;;;;;;;;;;;;;;;21.64;65.14;99767.53;4937583;28;6851;-72
2023/08/25 03:38:45;;;;;;;;;;;;;;;21.61;65.26;99760.59;4938368;28;6792;-74
2023/08/25 03:41:11;;;;;;;;;;;;;;;21.59;64.99;99764.09;4981186;28;7355;-70
2023/08/25 03:43:36;;;;;;;;;;;;;;;21.57;64.98;99771.06;4941027;28;7249;-69
2023/08/25 03:46:03;;;;;;;;;;;;;;;21.54;65.32;99771.09;4960760;28;7212;-71
2023/08/25 03:48:29;;;;;;;;;;;;;;;21.50;65.58;99776.31;4959862;28;6816;-71
2023/08/25 03:50:54;;;;;;;;;;;;;;;21.51;65.22;99790.22;4939014;28;6860;-70
2023/08/25 03:53:19;;;;;;;;;;;;;;;21.50;65.36;99788.50;4961658;28;6886;-70
2023/08/25 03:55:45;;;;;;;;;;;;;;;21.48;65.40;99788.50;4962053;28;6930;-71
2023/08/25 03:58:12;;;;;;;;;;;;;;;21.45;65.59;99791.13;4961108;28;6788;-72
2023/08/25 04:00:37;;;;;;;;;;;;;;;21.45;65.73;99785.03;4941733;28;6993;-70
2023/08/25 04:03:03;;;;;;;;;;;;;;;21.44;65.75;99791.13;4960541;28;6847;-71
2023/08/25 04:05:29;;;;;;;;;;;;;;;21.45;66.09;99780.72;4961644;28;6995;-71
2023/08/25 04:07:56;;;;;;;;;;;;;;;21.48;65.99;99772.84;4939628;28;7522;-71
2023/08/25 04:10:22;;;;;;;;;;;;;;;21.50;66.22;99776.31;4942023;28;7025;-71
2023/08/25 04:12:48;;;;;;;;;;;;;;;21.51;65.68;99775.44;4962980;28;6959;-70
2023/08/25 04:15:13;;;;;;;;;;;;;;;21.51;65.65;99780.66;4963012;28;7019;-71
2023/08/25 04:17:38;;;;;;;;;;;;;;;21.53;66.06;99772.81;4948293;28;7093;-71
2023/08/25 04:20:04;;;;;;;;;;;;;;;21.53;65.95;99772.81;4965615;28;6771;-71
2023/08/25 04:22:30;;;;;;;;;;;;;;;21.53;65.42;99772.81;4965585;28;7233;-70
2023/08/25 04:24:55;;;;;;;;;;;;;;;21.53;65.73;99767.63;4960624;28;6856;-71
2023/08/25 04:27:21;;;;;;;;;;;;;;;21.53;65.82;99766.72;4975369;28;7124;-71
2023/08/25 04:29:46;;;;;;;;;;;;;;;21.50;65.46;99763.28;4964623;28;6772;-71
2023/08/25 04:32:12;;;;;;;;;;;;;;;21.48;65.62;99765.03;4964509;28;6772;-70
2023/08/25 04:34:37;;;;;;;;;;;;;;;21.47;65.82;99767.66;4948726;28;6967;-70
2023/08/25 04:37:03;;;;;;;;;;;;;;;21.45;65.59;99762.47;4947625;28;7154;-70
2023/08/25 04:39:28;;;;;;;;;;;;;;;21.45;66.10;99762.47;4965517;28;6796;-70
2023/08/25 04:41:54;;;;;;;;;;;;;;;21.46;65.81;99766.78;4964494;28;6784;-71
2023/08/25 04:44:20;;;;;;;;;;;;;;;21.46;66.07;99758.97;4958683;28;6848;-71
2023/08/25 04:46:45;;;;;;;;;;;;;;;21.47;65.72;99765.91;4966620;28;6950;-70
2023/08/25 04:49:11;;;;;;;;;;;;;;;21.48;66.01;99770.25;4966729;28;6851;-71
2023/08/25 04:51:36;;;;;;;;;;;;;;;21.47;66.00;99767.66;4940475;28;6963;-70
2023/08/25 04:54:04;;;;;;;;;;;;;;;21.49;65.99;99771.13;4961080;28;7270;-71
2023/08/25 04:56:29;;;;;;;;;;;;;;;21.51;66.33;99775.44;4975473;28;7136;-70
2023/08/25 04:58:55;;;;;;;;;;;;;;;21.54;66.01;99768.50;4959659;28;7176;-71
2023/08/25 05:01:20;;;;;;;;;;;;;;;21.56;65.95;99771.94;4948471;28;7380;-70
2023/08/25 05:03:46;;;;;;;;;;;;;;;21.59;66.21;99783.22;4954421;28;6851;-71
2023/08/25 05:06:11;;;;;;;;;;;;;;;21.62;66.03;99777.09;4962785;28;6961;-72
2023/08/25 05:08:36;;;;;;;;;;;;;;;21.66;65.89;99768.38;4965253;28;6808;-71
2023/08/25 05:11:03;;;;;;;;;;;;;;;21.69;66.18;99771.00;4947297;28;7444;-71
2023/08/25 05:13:28;;;;;;;;;;;;;;;21.72;65.67;99773.56;4949911;28;6975;-70
2023/08/25 05:15:54;;;;;;;;;;;;;;;21.75;65.89;99768.34;4949261;28;6788;-70
2023/08/25 05:18:19;;;;;;;;;;;;;;;21.77;66.01;99756.16;4941866;28;6974;-70
2023/08/25 05:20:45;;;;;;;;;;;;;;;21.83;66.17;99763.06;4941001;28;7238;-71
2023/08/25 05:23:10;;;;;;;;;;;;;;;21.89;66.21;99764.75;4972692;28;7288;-70
2023/08/25 05:25:37;;;;;;;;;;;;;;;21.96;66.28;99757.72;4945928;28;6911;-72
2023/08/25 05:28:03;;;;;;;;;;;;;;;22.01;65.89;99742.91;4945850;28;7004;-72
2023/08/25 05:30:28;;;;;;;;;;;;;;;22.07;66.34;99740.25;4961476;28;7063;-70
2023/08/25 05:32:54;;;;;;;;;;;;;;;22.13;65.77;99736.72;4961030;28;6787;-71
2023/08/25 05:35:19;;;;;;;;;;;;;;;22.20;66.23;99744.44;4960316;28;6940;-71
2023/08/25 05:37:45;;;;;;;;;;;;;;;22.28;66.36;99746.97;4953295;28;7525;-71
2023/08/25 05:40:12;;;;;;;;;;;;;;;22.36;65.93;99736.47;4961944;28;6806;-70
2023/08/25 05:42:37;;;;;;;;;;;;;;;;;;4960371;28;7000;-71
2023/08/25 05:45:03;;;;;;;;;;;;;;;22.54;65.92;99724.09;4964681;28;6831;-71
2023/08/25 05:47:29;;;;;;;;;;;;;;;22.56;65.45;99720.56;4966325;28;6852;-70
2023/08/25 05:49:55;;;;;;;;;;;;;;;22.58;65.68;99731.00;4942504;28;6939;-71
2023/08/25 05:52:20;;;;;;;;;;;;;;;22.60;65.34;99718.78;4963793;28;6780;-71
2023/08/25 05:54:46;;;;;;;;;;;;;;;22.63;65.50;99718.75;4945672;28;7154;-70
2023/08/25 05:57:12;;;;;;;;;;;;;;;22.67;65.49;99716.97;4959582;28;7170;-71
2023/08/25 05:59:37;;;;;;;;;;;;;;;22.73;65.26;99716.91;4961220;28;7169;-71
2023/08/25 06:02:03;;;;;;;;;;;;;;;22.82;65.11;99714.16;4944979;28;7111;-71
2023/08/25 06:04:28;;;;;;;;;;;;;;;22.83;64.78;99715.88;4960612;28;7176;-71
2023/08/25 06:06:54;;;;;;;;;;;;;;;22.87;65.15;99720.16;4960709;28;6787;-71
2023/08/25 06:09:21;;;;;;;;;;;;;;;22.93;65.28;99723.59;4964728;28;7099;-71
2023/08/25 06:11:47;;;;;;;;;;;;;;;23.01;65.15;99714.75;4965918;28;7163;-71
2023/08/25 06:14:12;;;;;;;;;;;;;;;23.08;64.78;99715.56;4945299;28;7147;-70
2023/08/25 06:16:38;;;;;;;;;;;;;;;23.15;64.78;99721.53;4959108;28;7047;-71
2023/08/25 06:19:04;;;;;;;;;;;;;;;23.27;65.30;99710.91;4957531;28;6796;-71
2023/08/25 06:21:30;;;;;;;;;;;;;;;23.41;65.35;99700.25;4938508;28;7324;-72
2023/08/25 06:23:55;;;;;;;;;;;;;;;23.58;65.01;99701.72;4956301;28;6903;-70
2023/08/25 06:26:21;;;;;;;;;;;;;;;23.74;65.86;99693.59;4942027;28;6982;-70
2023/08/25 06:28:46;;;;;;;;;;;;;;;23.93;65.48;99704.59;4942645;28;6792;-71
2023/08/25 06:31:12;;;;;;;;;;;;;;;24.09;65.20;99718.31;4959331;28;6996;-70
2023/08/25 06:33:38;;;;;;;;;;;;;;;24.25;65.34;99711.88;4961451;28;6867;-71
2023/08/25 06:36:04;;;;;;;;;;;;;;;24.40;65.53;99713.34;4974445;28;6792;-71
2023/08/25 06:38:31;;;;;;;;;;;;;;;24.55;64.68;99727.88;4978285;28;7332;-71
2023/08/25 06:40:56;;;;;;;;;;;;;;;24.63;63.90;99746.03;4963198;28;6982;-70
2023/08/25 06:43:22;;;;;;;;;;;;;;;24.62;63.91;99769.63;4964480;28;6973;-71
2023/08/25 06:45:47;;;;;;;;;;;;;;;24.53;63.32;99800.38;4944759;28;6910;-72
2023/08/25 06:48:13;;;;;;;;;;;;;;;24.46;62.92;99827.56;4960503;28;6872;-71
2023/08/25 06:50:39;;;;;;;;;;;;;;;24.36;63.06;99826.88;4963200;28;6808;-72
2023/08/25 06:53:07;;;;;;;;;;;;;;;24.28;62.86;99818.28;4971674;28;6963;-72
2023/08/25 06:55:36;;;;;;;;;;;;;;;24.16;63.02;99808.03;4961759;28;6823;-72
2023/08/25 06:58:02;;;;;;;;;;;;;;;24.06;63.32;99775.94;4964907;28;6899;-71
2023/08/25 07:00:29;;;;;;;;;;;;;;;23.98;63.45;99762.94;4960615;28;6943;-70
2023/08/25 07:02:54;;;;;;;;;;;;;;;23.89;63.75;99787.53;4941344;28;9535;-71
2023/08/25 07:05:20;;;;;;;;;;;;;;;23.79;63.76;99809.50;4960754;28;6788;-71
2023/08/25 07:07:46;;;;;;;;;;;;;;;23.72;63.32;99769.50;4959329;28;6956;-71
2023/08/25 07:10:15;;;;;;;;;;;;;;;23.70;64.02;99747.72;4962197;28;7121;-70
2023/08/25 07:12:40;;;;;;;;;;;;;;;23.67;64.20;99727.72;4961474;28;6808;-71
2023/08/25 07:15:07;;;;;;;;;;;;;;;23.68;64.01;99742.53;4961101;28;6984;-71
2023/08/25 07:17:33;;;;;;;;;;;;;;;23.67;64.08;99794.88;4959813;28;6804;-71
2023/08/25 07:19:58;;;;;;;;;;;;;;;23.65;64.13;99812.34;4962956;28;6787;-72
2023/08/25 07:22:24;;;;;;;;;;;;;;;23.61;63.99;99869.06;4961286;28;7929;-72
2023/08/25 07:24:50;;;;;;;;;;;;;;;23.56;64.14;99863.91;4939378;28;7109;-72
2023/08/25 07:27:16;;;;;;;;;;;;;;;23.44;63.80;99856.22;4964089;28;7061;-73
2023/08/25 07:29:42;;;;;;;;;;;;;;;23.17;62.43;99791.19;4967020;28;6964;-73
2023/08/25 07:32:08;;;;;;;;;;;;;;;22.71;62.11;99750.00;4945743;28;7003;-73
2023/08/25 07:34:33;;;;;;;;;;;;;;;22.25;62.66;99752.22;4947259;28;8079;-72
2023/08/25 07:36:59;;;;;;;;;;;;;;;21.91;63.23;99774.28;4972866;28;7572;-73
2023/08/25 07:39:25;;;;;;;;;;;;;;;21.68;64.12;99777.09;4962482;28;7144;-72
2023/08/25 07:41:51;;;;;;;;;;;;;;;21.54;64.45;99825.84;4979616;28;7204;-72
2023/08/25 07:44:17;;;;;;;;;;;;;;;21.42;64.76;99861.50;4945003;28;7021;-72
2023/08/25 07:46:43;;;;;;;;;;;;;;;21.33;65.34;99857.22;4982479;28;6792;-73
2023/08/25 07:49:09;;;;;;;;;;;;;;;21.25;65.34;99838.16;4961662;28;7284;-73
2023/08/25 07:51:38;;;;;;;;;;;;;;;21.20;66.04;99817.31;4964385;28;6800;-72
2023/08/25 07:54:04;;;;;;;;;;;;;;;21.20;65.85;99819.94;4980952;28;6811;-71
2023/08/25 07:56:30;;;;;;;;;;;;;;;21.22;66.29;99831.22;4939758;28;6966;-72
2023/08/25 07:58:55;;;;;;;;;;;;;;;21.20;66.31;99853.81;4944976;28;6859;-72
2023/08/25 08:01:21;;;;;;;;;;;;;;;21.18;66.21;99870.31;4961160;28;6788;-72
2023/08/25 08:03:47;;;;;;;;;;;;;;;21.16;66.18;99870.34;4948306;28;7150;-72
2023/08/25 08:06:12;;;;;;;;;;;;;;;21.16;66.68;99846.91;4948482;28;7031;-72
2023/08/25 08:08:38;;;;;;;;;;;;;;;21.17;66.87;99806.94;4946043;28;6957;-71
2023/08/25 08:11:04;;;;;;;;;;;;;;;21.22;66.81;99776.50;4980981;28;7007;-72
2023/08/25 08:13:29;;;;;;;;;;;;;;;21.29;67.56;99774.72;4967311;28;6790;-72
2023/08/25 08:15:55;;;;;;;;;;;;;;;21.45;67.72;99778.09;4961237;28;7167;-72
2023/08/25 08:18:21;;;;;;;;;;;;;;;21.62;67.94;99777.09;4959670;28;7105;-72
2023/08/25 08:20:46;;;;;;;;;;;;;;;21.71;67.36;99792.69;4957213;28;6950;-71
2023/08/25 08:23:12;;;;;;;;;;;;;;;21.77;67.57;99782.22;4963077;28;7226;-72
2023/08/25 08:25:38;;;;;;;;;;;;;;;21.89;67.37;99790.84;4958306;28;7480;-73
2023/08/25 08:28:03;;;;;;;;;;;;;;;21.99;67.67;99778.59;4942085;28;6780;-73
2023/08/25 08:30:29;;;;;;;;;;;;;;;22.09;67.36;99776.75;4980273;28;6877;-72
2023/08/25 08:32:54;;;;;;;;;;;;;;;22.19;67.23;99786.22;4951338;28;6852;-72
2023/08/25 08:35:20;;;;;;;;;;;;;;;22.34;68.34;99783.47;4966094;28;7472;-72
2023/08/25 08:37:45;;;;;;;;;;;;;;;22.55;67.65;99794.56;4962736;28;6780;-72
2023/08/25 08:40:11;;;;;;;;;;;;;;;22.71;67.50;99787.41;4967685;28;6854;-72
2023/08/25 08:42:37;;;;;;;;;;;;;;;22.87;68.04;99780.25;4952181;28;6964;-72
2023/08/25 08:45:07;;;;;;;;;;;;;;;23.12;68.80;99781.69;4965394;28;6891;-72
2023/08/25 08:47:34;;;;;;;;;;;;;;;23.48;68.43;99795.16;4966807;28;6827;-73
2023/08/25 08:50:00;;;;;;;;;;;;;;;23.85;68.18;99783.22;4945213;28;7149;-72
2023/08/25 08:52:27;;;;;;;;;;;;;;;24.24;68.61;99778.22;4980619;28;8744;-72
2023/08/25 08:54:53;;;;;;;;;;;;;;;24.63;68.49;99780.09;4949007;28;6955;-72
2023/08/25 08:57:18;;;;;;;;;;;;;;;25.00;68.32;99770.63;4968416;28;6795;-72
2023/08/25 08:59:44;;;;;;;;;;;;;;;25.33;68.33;99781.25;4944166;28;6788;-72
2023/08/25 09:02:13;;;;;;;;;;;;;;;25.68;67.63;99772.59;4949625;28;7294;-73
2023/08/25 09:04:39;;;;;;;;;;;;;;;25.90;66.86;99767.69;4966513;28;6807;-73
2023/08/25 09:07:06;;;;;;;;;;;;;;;26.02;66.19;99756.00;4960995;28;6804;-72
2023/08/25 09:09:32;;;;;;;;;;;;;;;26.07;65.51;99748.84;4942181;28;6961;-73
2023/08/25 09:11:57;;;;;;;;;;;;;;;26.15;65.61;99757.38;4940776;28;6812;-72
2023/08/25 09:14:29;;;;;;;;;;;;;;;26.16;65.20;99764.34;4963628;28;7032;-73
2023/08/25 09:16:56;;;;;;;;;;;;;;;26.12;64.51;99777.59;4944921;28;7319;-73
2023/08/25 09:19:22;;;;;;;;;;;;;;;25.99;63.86;99788.44;4963345;28;6804;-72
2023/08/25 09:21:48;;;;;;;;;;;;;;;25.78;63.60;99785.47;4955862;28;7369;-73
2023/08/25 09:24:21;;;;;;;;;;;;;;;25.60;63.85;99818.28;4974950;28;7391;-73
2023/08/25 09:26:48;;;;;;;;;;;;;;;25.43;64.04;99834.34;4963332;28;8241;-72
2023/08/25 09:29:13;;;;;;;;;;;;;;;25.29;63.83;99860.03;4941927;28;6819;-73
2023/08/25 09:31:39;;;;;;;;;;;;;;;25.13;63.95;99877.84;4956122;28;7007;-73
2023/08/25 09:34:06;;;;;;;;;;;;;;;24.96;63.93;99858.09;4945681;28;6943;-73
2023/08/25 09:36:33;;;;;;;;;;;;;;;24.79;63.82;99846.19;4961091;28;7007;-73
2023/08/25 09:39:00;;;;;;;;;;;;;;;24.62;64.47;99814.16;4944282;28;6804;-73
2023/08/25 09:41:28;;;;;;;;;;;;;;;24.43;64.76;99790.94;4941721;28;6800;-73
2023/08/25 09:44:00;;;;;;;;;;;;;;;24.26;64.75;99801.75;4978764;28;7326;-72
2023/08/25 09:46:30;;;;;;;;;;;;;;;24.14;65.34;99821.16;4965638;28;6954;-73
2023/08/25 09:49:07;;;;;;;;;;;;;;;24.02;65.32;99821.34;4964604;28;6867;-72
2023/08/25 09:51:39;;;;;;;;;;;;;;;23.93;66.31;99849.38;4973611;28;7075;-72
2023/08/25 09:54:15;;;;;;;;;;;;;;;23.84;65.55;99858.25;4962186;28;7269;-73
2023/08/25 09:56:44;;;;;;;;;;;;;;;23.75;66.03;99844.44;4979337;28;6891;-73
2023/08/25 09:59:10;;;;;;;;;;;;;;;23.65;66.62;99860.25;4948612;28;6815;-73
2023/08/25 10:01:40;;;;;;;;;;;;;;;23.53;66.16;99852.59;4937133;28;6808;-72
2023/08/25 10:04:06;;;;;;;;;;;;;;;23.43;66.23;99834.44;4953094;28;7169;-73
2023/08/25 10:06:35;;;;;;;;;;;;;;;23.36;67.11;99818.88;4973220;28;6847;-72
2023/08/25 10:09:01;;;;;;;;;;;;;;;23.33;67.12;99806.69;4943203;28;6805;-72
2023/08/25 10:11:29;;;;;;;;;;;;;;;23.30;67.33;99788.44;4957745;28;6951;-73
2023/08/25 10:13:58;;;;;;;;;;;;;;;23.30;67.17;99798.91;4945241;28;7263;-72
2023/08/25 10:16:28;;;;;;;;;;;;;;;23.28;68.02;99788.47;4924017;28;7641;-72
2023/08/25 10:18:58;;;;;;;;;;;;;;;23.28;67.44;99771.94;4959114;28;6796;-71
2023/08/25 10:21:25;;;;;;;;;;;;;;;23.30;68.24;99778.84;4964658;28;7148;-71
2023/08/25 10:23:58;;;;;;;;;;;;;;;23.38;68.49;99775.25;4943125;28;6856;-73
2023/08/25 10:26:24;;;;;;;;;;;;;;;23.52;68.83;99775.03;4954791;28;6990;-73
2023/08/25 10:28:51;;;;;;;;;;;;;;;23.69;69.31;99752.09;4977575;28;6803;-73
2023/08/25 10:31:17;;;;;;;;;;;;;;;23.93;69.80;99752.56;4936559;28;7758;-73
2023/08/25 10:33:50;;;;;;;;;;;;;;;24.22;69.84;99761.66;4962008;28;6803;-73
2023/08/25 10:36:20;;;;;;;;;;;;;;;24.46;69.11;99762.09;4940280;28;7521;-73
2023/08/25 10:39:06;;;;;;;;;;;;;;;24.64;68.56;99786.22;4943375;28;7261;-73
2023/08/25 10:41:40;;;;;;;;;;;;;;;24.72;68.07;99791.28;4945132;28;7892;-73
2023/08/25 10:44:09;;;;;;;;;;;;;;;24.78;67.63;99791.19;4942127;28;6823;-73
2023/08/25 10:46:36;;;;;;;;;;;;;;;24.87;67.81;99795.38;4944063;28;7280;-73
2023/08/25 10:49:06;;;;;;;;;;;;;;;24.99;67.54;99800.34;4960174;28;7166;-73
2023/08/25 10:51:33;;;;;;;;;;;;;;;25.03;67.30;99807.25;4962541;28;6820;-73
2023/08/25 10:53:59;;;;;;;;;;;;;;;24.95;66.92;99822.28;4944554;28;6836;-73
2023/08/25 10:56:26;;;;;;;;;;;;;;;24.82;66.78;99813.81;4944087;28;6859;-73
2023/08/25 10:59:06;;;;;;;;;;;;;;;24.73;67.13;99808.72;4956194;28;7351;-73
2023/08/25 11:01:38;;;;;;;;;;;;;;;24.65;67.45;99840.31;4960582;28;7264;-73
2023/08/25 11:04:10;;;;;;;;;;;;;;;24.56;66.60;99843.97;4960196;28;6864;-73
2023/08/25 11:06:42;;;;;;;;;;;;;;;24.48;67.03;99836.25;4975344;28;6816;-73
2023/08/25 11:09:09;;;;;;;;;;;;;;;24.52;68.58;99777.69;4962444;28;6982;-72
2023/08/25 11:11:37;;;;;;;;;;;;;;;24.71;69.21;99774.69;4959105;28;6893;-72
2023/08/25 11:14:02;;;;;;;;;;;;;;;24.95;69.41;99782.97;4945364;28;7867;-74
2023/08/25 11:16:28;;;;;;;;;;;;;;;25.14;68.71;99778.19;4975746;28;6980;-73
2023/08/25 11:18:53;;;;;;;;;;;;;;;25.35;69.23;99754.97;4960147;28;6988;-74
2023/08/25 11:21:25;;;;;;;;;;;;;;;25.67;69.17;99753.38;4941405;28;7111;-73
2023/08/25 11:23:51;;;;;;;;;;;;;;;25.93;68.40;99762.38;4954149;28;7293;-74
2023/08/25 11:26:18;;;;;;;;;;;;;;;26.07;67.69;99769.84;4944961;28;6772;-74
2023/08/25 11:28:48;;;;;;;;;;;;;;;26.13;67.25;99768.84;4964447;28;7271;-73
2023/08/25 11:31:14;;;;;;;;;;;;;;;26.15;66.71;99762.63;4964690;28;6979;-74
2023/08/25 11:33:40;;;;;;;;;;;;;;;26.19;66.58;99768.66;4965985;28;7392;-73
2023/08/25 11:36:06;;;;;;;;;;;;;;;26.20;66.26;99770.41;4939848;28;7199;-73
2023/08/25 11:38:31;;;;;;;;;;;;;;;26.20;66.09;99787.06;4975179;28;6835;-73
2023/08/25 11:40:57;;;;;;;;;;;;;;;26.14;65.69;99784.56;4954973;28;7352;-74
2023/08/25 11:43:30;;;;;;;;;;;;;;;26.04;66.07;99783.94;4960322;28;6947;-73
2023/08/25 11:45:55;;;;;;;;;;;;;;;25.96;65.73;99785.03;4937645;28;7165;-73
2023/08/25 11:48:21;;;;;;;;;;;;;;;25.84;65.46;99783.59;4960472;28;6939;-74
2023/08/25 11:50:47;;;;;;;;;;;;;;;25.65;64.03;99800.66;4976747;28;6999;-73
2023/08/25 11:53:12;;;;;;;;;;;;;;;25.33;64.62;99777.75;4972564;28;6812;-73
2023/08/25 11:55:38;;;;;;;;;;;;;;;25.06;65.45;99769.63;4973910;28;6856;-73
2023/08/25 11:58:07;;;;;;;;;;;;;;;24.86;65.88;99783.16;4958483;28;6820;-73
2023/08/25 12:00:39;;;;;;;;;;;;;;;24.75;67.06;99765.88;4968181;28;7040;-73
2023/08/25 12:03:07;;;;;;;;;;;;;;;24.76;67.00;99775.47;4950788;28;7100;-73
2023/08/25 12:05:35;;;;;;;;;;;;;;;24.79;66.82;99793.78;4936917;28;6808;-73
2023/08/25 12:08:01;;;;;;;;;;;;;;;24.71;66.59;99800.03;4951432;28;7383;-74
2023/08/25 12:10:26;;;;;;;;;;;;;;;24.59;66.38;99806.38;4942158;28;6999;-73
2023/08/25 12:12:53;;;;;;;;;;;;;;;24.44;66.79;99797.94;4954764;28;7145;-73
2023/08/25 12:15:19;;;;;;;;;;;;;;;24.33;66.87;99812.97;4965795;28;6986;-72
2023/08/25 12:17:47;;;;;;;;;;;;;;;24.24;66.69;99824.47;4944370;28;7204;-72
2023/08/25 12:20:15;;;;;;;;;;;;;;;24.23;67.98;99805.28;4958314;28;6812;-73
2023/08/25 12:22:50;;;;;;;;;;;;;;;24.67;69.33;99799.22;4959163;28;6863;-74
2023/08/25 12:25:16;;;;;;;;;;;;;;;25.31;69.44;99782.19;4954997;28;6796;-73
2023/08/25 12:27:41;;;;;;;;;;;;;;;26.09;68.61;99768.06;4955682;28;6973;-74
2023/08/25 12:30:07;;;;;;;;;;;;;;;26.95;67.55;99769.25;4943799;28;6776;-74
2023/08/25 12:32:33;;;;;;;;;;;;;;;27.82;65.77;99755.97;4939381;28;7194;-73
2023/08/25 12:34:59;;;;;;;;;;;;;;;28.49;64.70;99760.69;4958842;28;7193;-75
2023/08/25 12:37:24;;;;;;;;;;;;;;;28.81;62.81;99756.00;4960349;28;6856;-74
2023/08/25 12:39:49;;;;;;;;;;;;;;;28.87;61.90;99763.69;4960695;28;6784;-74
2023/08/25 12:42:15;;;;;;;;;;;;;;;29.24;62.44;99746.41;4963058;28;6827;-74
2023/08/25 12:44:40;;;;;;;;;;;;;;;29.99;61.38;99761.03;4969573;28;7101;-74
2023/08/25 12:47:06;;;;;;;;;;;;;;;30.78;60.45;99764.63;4984023;28;6895;-74
2023/08/25 12:49:32;;;;;;;;;;;;;;;31.42;58.93;99759.84;4947029;28;7225;-74
2023/08/25 12:51:57;;;;;;;;;;;;;;;31.65;57.54;99745.44;4964081;28;6935;-74
2023/08/25 12:54:24;;;;;;;;;;;;;;;31.38;56.11;99753.84;4966855;28;7061;-74
2023/08/25 12:56:51;;;;;;;;;;;;;;;30.85;56.23;99750.16;4948067;28;6994;-74